sensor_id;sensor_type;location;lat;lon;timestamp;P1;durP1;ratioP1;P2;durP2;ratioP2
15820;SDS011;8011;51.650;7.240;2022-12-24T00:01:10;18.93;;;5.03;;
15820;SDS011;8011;51.650;7.240;2022-12-24T00:03:36;14.57;;;4.07;;
15820;SDS011;8011;51.650;7.240;2022-12-24T00:06:03;17.87;;;4.93;;
15820;SDS011;8011;51.650;7.240;2022-12-24T00:08:33;16.67;;;4.77;;
15820;SDS011;8011;51.650;7.240;2022-12-24T00:10:59;15.30;;;4.73;;
15820;SDS011;8011;51.650;7.240;2022-12-24T00:13:25;15.83;;;4.67;;
15820;SDS011;8011;51.650;7.240;2022-12-24T00:15:51;16.73;;;4.73;;
15820;SDS011;8011;51.650;7.240;2022-12-24T00:18:16;17.17;;;4.80;;
15820;SDS011;8011;51.650;7.240;2022-12-24T00:20:48;14.83;;;5.27;;
15820;SDS011;8011;51.650;7.240;2022-12-24T00:23:14;19.43;;;5.00;;
15820;SDS011;8011;51.650;7.240;2022-12-24T00:25:41;17.03;;;5.70;;
15820;SDS011;8011;51.650;7.240;2022-12-24T00:28:06;18.90;;;4.80;;
15820;SDS011;8011;51.650;7.240;2022-12-24T00:30:32;20.60;;;4.90;;
15820;SDS011;8011;51.650;7.240;2022-12-24T00:32:58;13.67;;;4.33;;
15820;SDS011;8011;51.650;7.240;2022-12-24T00:35:23;17.90;;;4.93;;
15820;SDS011;8011;51.650;7.240;2022-12-24T00:37:49;15.37;;;4.43;;
15820;SDS011;8011;51.650;7.240;2022-12-24T00:40:15;17.40;;;4.73;;
15820;SDS011;8011;51.650;7.240;2022-12-24T00:42:42;12.60;;;4.47;;
15820;SDS011;8011;51.650;7.240;2022-12-24T00:45:08;15.73;;;3.97;;
15820;SDS011;8011;51.650;7.240;2022-12-24T00:47:35;26.33;;;4.53;;
15820;SDS011;8011;51.650;7.240;2022-12-24T00:50:00;15.43;;;4.63;;
15820;SDS011;8011;51.650;7.240;2022-12-24T00:52:26;20.07;;;4.83;;
15820;SDS011;8011;51.650;7.240;2022-12-24T00:54:52;16.23;;;4.00;;
15820;SDS011;8011;51.650;7.240;2022-12-24T00:57:17;22.23;;;4.30;;
15820;SDS011;8011;51.650;7.240;2022-12-24T00:59:43;18.43;;;4.00;;
15820;SDS011;8011;51.650;7.240;2022-12-24T04:00:49;17.87;;;5.20;;
15820;SDS011;8011;51.650;7.240;2022-12-24T04:03:16;20.63;;;5.57;;
15820;SDS011;8011;51.650;7.240;2022-12-24T04:05:41;21.30;;;5.00;;
15820;SDS011;8011;51.650;7.240;2022-12-24T04:08:07;21.97;;;5.33;;
15820;SDS011;8011;51.650;7.240;2022-12-24T04:10:33;21.60;;;5.30;;
15820;SDS011;8011;51.650;7.240;2022-12-24T04:12:58;24.40;;;5.73;;
15820;SDS011;8011;51.650;7.240;2022-12-24T04:15:34;18.37;;;4.67;;
15820;SDS011;8011;51.650;7.240;2022-12-24T04:18:00;33.23;;;6.57;;
15820;SDS011;8011;51.650;7.240;2022-12-24T04:20:25;23.13;;;6.00;;
15820;SDS011;8011;51.650;7.240;2022-12-24T04:22:51;25.33;;;5.30;;
15820;SDS011;8011;51.650;7.240;2022-12-24T04:25:18;24.10;;;5.20;;
15820;SDS011;8011;51.650;7.240;2022-12-24T04:31:07;20.47;;;5.27;;
15820;SDS011;8011;51.650;7.240;2022-12-24T04:33:35;25.70;;;5.60;;
15820;SDS011;8011;51.650;7.240;2022-12-24T04:36:02;22.23;;;4.77;;
15820;SDS011;8011;51.650;7.240;2022-12-24T04:38:29;19.40;;;4.20;;
15820;SDS011;8011;51.650;7.240;2022-12-24T04:41:07;23.73;;;4.80;;
15820;SDS011;8011;51.650;7.240;2022-12-24T04:43:35;20.07;;;4.53;;
15820;SDS011;8011;51.650;7.240;2022-12-24T04:46:11;22.73;;;4.23;;
15820;SDS011;8011;51.650;7.240;2022-12-24T04:48:41;19.80;;;4.70;;
15820;SDS011;8011;51.650;7.240;2022-12-24T04:51:08;24.77;;;5.00;;
15820;SDS011;8011;51.650;7.240;2022-12-24T04:53:34;19.97;;;3.93;;
15820;SDS011;8011;51.650;7.240;2022-12-24T04:56:00;16.80;;;3.90;;
15820;SDS011;8011;51.650;7.240;2022-12-24T04:58:26;20.53;;;4.37;;
15820;SDS011;8011;51.650;7.240;2022-12-24T05:00:52;17.60;;;4.57;;
15820;SDS011;8011;51.650;7.240;2022-12-24T05:03:18;23.40;;;5.17;;
15820;SDS011;8011;51.650;7.240;2022-12-24T05:05:44;15.70;;;3.90;;
15820;SDS011;8011;51.650;7.240;2022-12-24T05:08:10;16.37;;;3.97;;
15820;SDS011;8011;51.650;7.240;2022-12-24T05:10:36;17.87;;;4.00;;
15820;SDS011;8011;51.650;7.240;2022-12-24T05:13:02;14.47;;;3.97;;
15820;SDS011;8011;51.650;7.240;2022-12-24T05:15:27;15.03;;;4.57;;
15820;SDS011;8011;51.650;7.240;2022-12-24T05:17:53;17.07;;;4.67;;
15820;SDS011;8011;51.650;7.240;2022-12-24T05:20:19;18.93;;;4.87;;
15820;SDS011;8011;51.650;7.240;2022-12-24T05:22:44;21.80;;;4.77;;
15820;SDS011;8011;51.650;7.240;2022-12-24T05:25:37;17.43;;;4.47;;
15820;SDS011;8011;51.650;7.240;2022-12-24T05:28:22;22.33;;;5.70;;
15820;SDS011;8011;51.650;7.240;2022-12-24T05:30:48;16.57;;;4.87;;
15820;SDS011;8011;51.650;7.240;2022-12-24T05:33:14;16.00;;;4.93;;
15820;SDS011;8011;51.650;7.240;2022-12-24T05:35:40;22.87;;;6.27;;
15820;SDS011;8011;51.650;7.240;2022-12-24T05:38:05;14.77;;;5.30;;
15820;SDS011;8011;51.650;7.240;2022-12-24T05:40:31;19.03;;;5.37;;
15820;SDS011;8011;51.650;7.240;2022-12-24T05:42:57;19.90;;;5.70;;
15820;SDS011;8011;51.650;7.240;2022-12-24T05:45:22;19.03;;;5.67;;
15820;SDS011;8011;51.650;7.240;2022-12-24T05:47:48;23.40;;;5.50;;
15820;SDS011;8011;51.650;7.240;2022-12-24T05:50:14;21.13;;;5.87;;
15820;SDS011;8011;51.650;7.240;2022-12-24T05:52:39;17.30;;;6.00;;
15820;SDS011;8011;51.650;7.240;2022-12-24T05:55:05;17.27;;;5.60;;
15820;SDS011;8011;51.650;7.240;2022-12-24T05:57:31;16.27;;;6.03;;
15820;SDS011;8011;51.650;7.240;2022-12-24T05:59:57;18.90;;;6.10;;
15820;SDS011;8011;51.650;7.240;2022-12-24T06:02:22;16.53;;;6.13;;
15820;SDS011;8011;51.650;7.240;2022-12-24T06:04:48;20.67;;;7.00;;
15820;SDS011;8011;51.650;7.240;2022-12-24T06:07:13;19.50;;;6.50;;
15820;SDS011;8011;51.650;7.240;2022-12-24T06:09:39;21.13;;;5.77;;
15820;SDS011;8011;51.650;7.240;2022-12-24T06:12:05;17.20;;;6.60;;
15820;SDS011;8011;51.650;7.240;2022-12-24T06:14:31;20.93;;;6.80;;
15820;SDS011;8011;51.650;7.240;2022-12-24T06:16:56;16.33;;;6.13;;
15820;SDS011;8011;51.650;7.240;2022-12-24T06:19:22;16.83;;;7.40;;
15820;SDS011;8011;51.650;7.240;2022-12-24T06:21:47;25.37;;;7.60;;
15820;SDS011;8011;51.650;7.240;2022-12-24T06:24:13;18.57;;;7.47;;
15820;SDS011;8011;51.650;7.240;2022-12-24T06:26:48;21.20;;;7.07;;
15820;SDS011;8011;51.650;7.240;2022-12-24T06:29:14;17.13;;;6.40;;
15820;SDS011;8011;51.650;7.240;2022-12-24T06:31:39;16.77;;;6.00;;
15820;SDS011;8011;51.650;7.240;2022-12-24T06:34:05;15.87;;;5.73;;
15820;SDS011;8011;51.650;7.240;2022-12-24T06:36:31;19.70;;;6.43;;
15820;SDS011;8011;51.650;7.240;2022-12-24T06:38:56;15.50;;;6.77;;
15820;SDS011;8011;51.650;7.240;2022-12-24T06:41:22;20.73;;;6.40;;
15820;SDS011;8011;51.650;7.240;2022-12-24T06:43:49;20.80;;;7.23;;
15820;SDS011;8011;51.650;7.240;2022-12-24T06:46:16;20.73;;;6.70;;
15820;SDS011;8011;51.650;7.240;2022-12-24T06:48:42;18.77;;;6.43;;
15820;SDS011;8011;51.650;7.240;2022-12-24T06:51:09;24.13;;;6.27;;
15820;SDS011;8011;51.650;7.240;2022-12-24T06:53:36;17.67;;;6.37;;
15820;SDS011;8011;51.650;7.240;2022-12-24T06:56:05;12.43;;;5.27;;
15820;SDS011;8011;51.650;7.240;2022-12-24T06:58:32;18.73;;;6.03;;
15820;SDS011;8011;51.650;7.240;2022-12-24T07:01:02;21.23;;;6.30;;
15820;SDS011;8011;51.650;7.240;2022-12-24T07:03:29;18.00;;;6.83;;
15820;SDS011;8011;51.650;7.240;2022-12-24T07:05:55;14.73;;;6.40;;
15820;SDS011;8011;51.650;7.240;2022-12-24T07:08:21;18.30;;;6.53;;
15820;SDS011;8011;51.650;7.240;2022-12-24T07:10:47;15.03;;;6.97;;
15820;SDS011;8011;51.650;7.240;2022-12-24T07:13:14;19.07;;;6.30;;
15820;SDS011;8011;51.650;7.240;2022-12-24T07:15:40;15.20;;;6.07;;
15820;SDS011;8011;51.650;7.240;2022-12-24T07:18:06;17.10;;;6.07;;
15820;SDS011;8011;51.650;7.240;2022-12-24T07:20:32;16.20;;;6.40;;
15820;SDS011;8011;51.650;7.240;2022-12-24T07:22:58;22.23;;;6.27;;
15820;SDS011;8011;51.650;7.240;2022-12-24T07:25:23;16.93;;;6.10;;
15820;SDS011;8011;51.650;7.240;2022-12-24T07:27:49;15.33;;;5.23;;
15820;SDS011;8011;51.650;7.240;2022-12-24T07:30:15;17.03;;;5.23;;
15820;SDS011;8011;51.650;7.240;2022-12-24T07:32:41;17.30;;;5.23;;
15820;SDS011;8011;51.650;7.240;2022-12-24T07:35:06;18.03;;;5.47;;
15820;SDS011;8011;51.650;7.240;2022-12-24T07:37:32;17.37;;;5.17;;
15820;SDS011;8011;51.650;7.240;2022-12-24T07:39:58;17.17;;;6.17;;
15820;SDS011;8011;51.650;7.240;2022-12-24T07:42:23;14.60;;;4.90;;
15820;SDS011;8011;51.650;7.240;2022-12-24T07:44:49;18.43;;;4.60;;
15820;SDS011;8011;51.650;7.240;2022-12-24T07:47:15;14.27;;;4.57;;
15820;SDS011;8011;51.650;7.240;2022-12-24T07:49:41;14.23;;;4.60;;
15820;SDS011;8011;51.650;7.240;2022-12-24T07:52:06;19.20;;;4.67;;
15820;SDS011;8011;51.650;7.240;2022-12-24T07:54:32;16.53;;;5.13;;
15820;SDS011;8011;51.650;7.240;2022-12-24T07:56:58;14.67;;;3.93;;
15820;SDS011;8011;51.650;7.240;2022-12-24T07:59:23;17.63;;;4.47;;
15820;SDS011;8011;51.650;7.240;2022-12-24T08:05:14;20.80;;;4.93;;
15820;SDS011;8011;51.650;7.240;2022-12-24T08:07:40;20.40;;;5.27;;
15820;SDS011;8011;51.650;7.240;2022-12-24T08:10:06;15.97;;;4.97;;
15820;SDS011;8011;51.650;7.240;2022-12-24T08:15:36;19.07;;;6.07;;
15820;SDS011;8011;51.650;7.240;2022-12-24T08:18:02;15.33;;;4.70;;
15820;SDS011;8011;51.650;7.240;2022-12-24T08:20:28;19.87;;;6.50;;
15820;SDS011;8011;51.650;7.240;2022-12-24T08:22:53;14.40;;;5.40;;
15820;SDS011;8011;51.650;7.240;2022-12-24T08:25:19;19.13;;;5.83;;
15820;SDS011;8011;51.650;7.240;2022-12-24T08:27:45;14.83;;;5.57;;
15820;SDS011;8011;51.650;7.240;2022-12-24T08:30:11;21.80;;;5.90;;
15820;SDS011;8011;51.650;7.240;2022-12-24T08:32:37;17.70;;;5.53;;
15820;SDS011;8011;51.650;7.240;2022-12-24T08:35:03;16.87;;;5.17;;
15820;SDS011;8011;51.650;7.240;2022-12-24T08:37:28;23.67;;;6.30;;
15820;SDS011;8011;51.650;7.240;2022-12-24T08:39:54;18.20;;;5.73;;
15820;SDS011;8011;51.650;7.240;2022-12-24T08:42:20;24.10;;;5.70;;
15820;SDS011;8011;51.650;7.240;2022-12-24T08:44:45;14.20;;;5.13;;
15820;SDS011;8011;51.650;7.240;2022-12-24T08:47:11;16.87;;;5.23;;
15820;SDS011;8011;51.650;7.240;2022-12-24T08:49:37;15.63;;;5.03;;
15820;SDS011;8011;51.650;7.240;2022-12-24T08:52:04;24.50;;;6.00;;
15820;SDS011;8011;51.650;7.240;2022-12-24T08:54:30;20.80;;;5.07;;
15820;SDS011;8011;51.650;7.240;2022-12-24T08:56:55;21.30;;;5.43;;
15820;SDS011;8011;51.650;7.240;2022-12-24T08:59:21;16.57;;;5.03;;
15820;SDS011;8011;51.650;7.240;2022-12-24T09:01:47;16.67;;;5.07;;
15820;SDS011;8011;51.650;7.240;2022-12-24T09:04:15;20.43;;;4.97;;
15820;SDS011;8011;51.650;7.240;2022-12-24T09:06:40;16.83;;;4.43;;
15820;SDS011;8011;51.650;7.240;2022-12-24T09:09:06;13.70;;;4.70;;
15820;SDS011;8011;51.650;7.240;2022-12-24T09:11:33;21.00;;;5.63;;
15820;SDS011;8011;51.650;7.240;2022-12-24T09:13:59;17.33;;;4.73;;
15820;SDS011;8011;51.650;7.240;2022-12-24T09:16:25;15.93;;;4.43;;
15820;SDS011;8011;51.650;7.240;2022-12-24T09:18:51;23.97;;;4.70;;
15820;SDS011;8011;51.650;7.240;2022-12-24T09:21:17;17.57;;;4.53;;
15820;SDS011;8011;51.650;7.240;2022-12-24T09:23:43;16.37;;;4.93;;
15820;SDS011;8011;51.650;7.240;2022-12-24T09:26:18;15.33;;;4.40;;
15820;SDS011;8011;51.650;7.240;2022-12-24T09:28:46;21.13;;;4.83;;
15820;SDS011;8011;51.650;7.240;2022-12-24T09:31:13;18.23;;;4.77;;
15820;SDS011;8011;51.650;7.240;2022-12-24T09:33:40;22.83;;;5.80;;
15820;SDS011;8011;51.650;7.240;2022-12-24T09:36:07;15.17;;;4.63;;
15820;SDS011;8011;51.650;7.240;2022-12-24T09:38:33;19.30;;;5.10;;
15820;SDS011;8011;51.650;7.240;2022-12-24T09:41:00;21.47;;;4.67;;
15820;SDS011;8011;51.650;7.240;2022-12-24T09:43:34;16.53;;;4.40;;
15820;SDS011;8011;51.650;7.240;2022-12-24T09:46:07;22.07;;;5.63;;
15820;SDS011;8011;51.650;7.240;2022-12-24T09:48:38;20.20;;;4.63;;
15820;SDS011;8011;51.650;7.240;2022-12-24T09:51:11;15.03;;;5.53;;
15820;SDS011;8011;51.650;7.240;2022-12-24T09:56:26;16.40;;;4.73;;
15820;SDS011;8011;51.650;7.240;2022-12-24T10:01:24;23.97;;;5.93;;
15820;SDS011;8011;51.650;7.240;2022-12-24T10:03:51;26.17;;;6.83;;
15820;SDS011;8011;51.650;7.240;2022-12-24T10:06:17;22.07;;;7.47;;
15820;SDS011;8011;51.650;7.240;2022-12-24T10:24:55;21.57;;;5.43;;
15820;SDS011;8011;51.650;7.240;2022-12-24T10:27:28;21.53;;;5.97;;
15820;SDS011;8011;51.650;7.240;2022-12-24T10:30:00;19.47;;;4.87;;
15820;SDS011;8011;51.650;7.240;2022-12-24T10:32:31;18.87;;;5.07;;
15820;SDS011;8011;51.650;7.240;2022-12-24T10:37:28;16.93;;;4.83;;
15820;SDS011;8011;51.650;7.240;2022-12-24T10:39:56;16.17;;;4.60;;
15820;SDS011;8011;51.650;7.240;2022-12-24T10:42:24;21.27;;;5.33;;
15820;SDS011;8011;51.650;7.240;2022-12-24T10:45:07;17.43;;;5.07;;
15820;SDS011;8011;51.650;7.240;2022-12-24T10:47:40;27.60;;;6.13;;
15820;SDS011;8011;51.650;7.240;2022-12-24T10:50:18;25.17;;;5.90;;
15820;SDS011;8011;51.650;7.240;2022-12-24T10:52:59;21.77;;;5.77;;
15820;SDS011;8011;51.650;7.240;2022-12-24T10:55:38;28.13;;;6.20;;
15820;SDS011;8011;51.650;7.240;2022-12-24T10:58:06;17.80;;;5.37;;
15820;SDS011;8011;51.650;7.240;2022-12-24T11:00:37;17.20;;;4.77;;
15820;SDS011;8011;51.650;7.240;2022-12-24T11:03:19;18.17;;;5.00;;
15820;SDS011;8011;51.650;7.240;2022-12-24T11:08:31;17.23;;;5.40;;
15820;SDS011;8011;51.650;7.240;2022-12-24T11:10:59;19.30;;;5.80;;
15820;SDS011;8011;51.650;7.240;2022-12-24T11:13:27;23.67;;;6.03;;
15820;SDS011;8011;51.650;7.240;2022-12-24T11:16:00;22.47;;;6.27;;
15820;SDS011;8011;51.650;7.240;2022-12-24T11:18:30;21.10;;;6.50;;
15820;SDS011;8011;51.650;7.240;2022-12-24T11:20:57;22.53;;;6.00;;
15820;SDS011;8011;51.650;7.240;2022-12-24T11:23:25;19.83;;;5.77;;
15820;SDS011;8011;51.650;7.240;2022-12-24T11:25:52;18.27;;;6.23;;
15820;SDS011;8011;51.650;7.240;2022-12-24T11:28:20;21.03;;;6.63;;
15820;SDS011;8011;51.650;7.240;2022-12-24T11:30:57;22.03;;;5.97;;
15820;SDS011;8011;51.650;7.240;2022-12-24T11:33:26;19.50;;;7.50;;
15820;SDS011;8011;51.650;7.240;2022-12-24T11:35:55;17.90;;;6.50;;
15820;SDS011;8011;51.650;7.240;2022-12-24T11:38:26;18.93;;;5.87;;
15820;SDS011;8011;51.650;7.240;2022-12-24T11:40:57;17.67;;;5.63;;
15820;SDS011;8011;51.650;7.240;2022-12-24T11:43:25;20.27;;;7.23;;
15820;SDS011;8011;51.650;7.240;2022-12-24T11:48:44;20.50;;;7.03;;
15820;SDS011;8011;51.650;7.240;2022-12-24T11:51:19;19.27;;;7.67;;
15820;SDS011;8011;51.650;7.240;2022-12-24T11:56:42;22.30;;;7.27;;
15820;SDS011;8011;51.650;7.240;2022-12-24T11:59:13;23.17;;;7.10;;
15820;SDS011;8011;51.650;7.240;2022-12-24T12:04:29;22.97;;;7.97;;
15820;SDS011;8011;51.650;7.240;2022-12-24T12:12:08;19.53;;;6.40;;
15820;SDS011;8011;51.650;7.240;2022-12-24T12:17:48;15.70;;;5.80;;
15820;SDS011;8011;51.650;7.240;2022-12-24T12:20:18;15.23;;;5.43;;
15820;SDS011;8011;51.650;7.240;2022-12-24T12:23:19;18.83;;;6.03;;
15820;SDS011;8011;51.650;7.240;2022-12-24T12:25:51;17.43;;;4.73;;
15820;SDS011;8011;51.650;7.240;2022-12-24T12:28:19;15.63;;;4.87;;
15820;SDS011;8011;51.650;7.240;2022-12-24T12:30:53;19.63;;;5.13;;
15820;SDS011;8011;51.650;7.240;2022-12-24T12:33:31;18.80;;;5.87;;
15820;SDS011;8011;51.650;7.240;2022-12-24T12:36:08;19.90;;;5.10;;
15820;SDS011;8011;51.650;7.240;2022-12-24T12:38:36;12.27;;;5.00;;
15820;SDS011;8011;51.650;7.240;2022-12-24T12:41:17;21.03;;;5.67;;
15820;SDS011;8011;51.650;7.240;2022-12-24T12:57:32;17.60;;;5.40;;
15820;SDS011;8011;51.650;7.240;2022-12-24T13:00:03;15.03;;;5.40;;
15820;SDS011;8011;51.650;7.240;2022-12-24T13:05:32;18.10;;;5.47;;
15820;SDS011;8011;51.650;7.240;2022-12-24T13:11:03;18.30;;;6.23;;
15820;SDS011;8011;51.650;7.240;2022-12-24T13:13:38;18.40;;;6.53;;
15820;SDS011;8011;51.650;7.240;2022-12-24T13:16:45;18.67;;;6.37;;
15820;SDS011;8011;51.650;7.240;2022-12-24T13:22:13;20.10;;;5.63;;
15820;SDS011;8011;51.650;7.240;2022-12-24T13:24:45;17.50;;;5.87;;
15820;SDS011;8011;51.650;7.240;2022-12-24T13:34:47;15.67;;;5.00;;
15820;SDS011;8011;51.650;7.240;2022-12-24T13:37:37;18.47;;;6.23;;
15820;SDS011;8011;51.650;7.240;2022-12-24T13:50:47;25.73;;;9.53;;
15820;SDS011;8011;51.650;7.240;2022-12-24T13:53:26;18.60;;;5.33;;
15820;SDS011;8011;51.650;7.240;2022-12-24T13:58:38;34.77;;;12.20;;
15820;SDS011;8011;51.650;7.240;2022-12-24T14:01:10;60.40;;;25.07;;
15820;SDS011;8011;51.650;7.240;2022-12-24T14:03:57;67.73;;;27.40;;
15820;SDS011;8011;51.650;7.240;2022-12-24T14:06:29;24.57;;;6.53;;
15820;SDS011;8011;51.650;7.240;2022-12-24T14:09:09;20.57;;;5.73;;
15820;SDS011;8011;51.650;7.240;2022-12-24T14:14:28;12.33;;;5.20;;
15820;SDS011;8011;51.650;7.240;2022-12-24T14:16:57;20.00;;;5.47;;
15820;SDS011;8011;51.650;7.240;2022-12-24T14:19:27;18.33;;;5.97;;
15820;SDS011;8011;51.650;7.240;2022-12-24T14:30:07;14.90;;;6.50;;
15820;SDS011;8011;51.650;7.240;2022-12-24T14:32:44;14.93;;;5.53;;
15820;SDS011;8011;51.650;7.240;2022-12-24T14:37:47;16.57;;;6.33;;
15820;SDS011;8011;51.650;7.240;2022-12-24T14:40:16;16.33;;;5.30;;
15820;SDS011;8011;51.650;7.240;2022-12-24T14:46:14;18.17;;;5.57;;
15820;SDS011;8011;51.650;7.240;2022-12-24T14:48:52;17.67;;;5.63;;
15820;SDS011;8011;51.650;7.240;2022-12-24T14:56:42;21.13;;;6.80;;
15820;SDS011;8011;51.650;7.240;2022-12-24T14:59:18;15.70;;;5.90;;
15820;SDS011;8011;51.650;7.240;2022-12-24T15:01:44;15.43;;;5.80;;
15820;SDS011;8011;51.650;7.240;2022-12-24T15:06:43;18.00;;;6.10;;
15820;SDS011;8011;51.650;7.240;2022-12-24T15:09:18;16.10;;;5.30;;
15820;SDS011;8011;51.650;7.240;2022-12-24T15:11:46;14.20;;;4.67;;
15820;SDS011;8011;51.650;7.240;2022-12-24T15:14:13;12.37;;;4.60;;
15820;SDS011;8011;51.650;7.240;2022-12-24T15:16:40;15.93;;;5.30;;
15820;SDS011;8011;51.650;7.240;2022-12-24T15:19:19;15.37;;;5.00;;
15820;SDS011;8011;51.650;7.240;2022-12-24T15:21:52;11.33;;;4.73;;
15820;SDS011;8011;51.650;7.240;2022-12-24T15:24:22;11.87;;;4.90;;
15820;SDS011;8011;51.650;7.240;2022-12-24T15:26:48;16.87;;;5.87;;
15820;SDS011;8011;51.650;7.240;2022-12-24T15:29:24;11.13;;;5.50;;
15820;SDS011;8011;51.650;7.240;2022-12-24T15:31:53;14.23;;;5.53;;
15820;SDS011;8011;51.650;7.240;2022-12-24T15:37:28;17.37;;;8.67;;
15820;SDS011;8011;51.650;7.240;2022-12-24T15:39:53;16.40;;;6.53;;
15820;SDS011;8011;51.650;7.240;2022-12-24T15:42:31;20.63;;;8.20;;
15820;SDS011;8011;51.650;7.240;2022-12-24T15:47:29;16.17;;;5.80;;
15820;SDS011;8011;51.650;7.240;2022-12-24T15:50:24;17.23;;;7.90;;
15820;SDS011;8011;51.650;7.240;2022-12-24T15:53:14;21.50;;;10.07;;
15820;SDS011;8011;51.650;7.240;2022-12-24T15:55:44;27.73;;;13.10;;
15820;SDS011;8011;51.650;7.240;2022-12-24T15:58:33;27.50;;;13.97;;
15820;SDS011;8011;51.650;7.240;2022-12-24T16:01:03;29.70;;;11.40;;
15820;SDS011;8011;51.650;7.240;2022-12-24T16:03:29;23.13;;;11.73;;
15820;SDS011;8011;51.650;7.240;2022-12-24T16:05:59;21.47;;;11.17;;
15820;SDS011;8011;51.650;7.240;2022-12-24T16:08:30;23.23;;;11.53;;
15820;SDS011;8011;51.650;7.240;2022-12-24T16:13:30;26.23;;;12.43;;
15820;SDS011;8011;51.650;7.240;2022-12-24T16:15:59;21.80;;;10.67;;
15820;SDS011;8011;51.650;7.240;2022-12-24T16:18:32;29.70;;;13.53;;
15820;SDS011;8011;51.650;7.240;2022-12-24T16:21:03;25.63;;;10.80;;
15820;SDS011;8011;51.650;7.240;2022-12-24T16:23:52;24.90;;;12.57;;
15820;SDS011;8011;51.650;7.240;2022-12-24T16:26:21;17.20;;;8.40;;
15820;SDS011;8011;51.650;7.240;2022-12-24T16:28:47;18.77;;;9.50;;
15820;SDS011;8011;51.650;7.240;2022-12-24T16:31:16;14.70;;;7.33;;
15820;SDS011;8011;51.650;7.240;2022-12-24T16:33:44;16.80;;;7.93;;
15820;SDS011;8011;51.650;7.240;2022-12-24T16:36:10;16.77;;;8.23;;
15820;SDS011;8011;51.650;7.240;2022-12-24T16:38:37;17.20;;;8.07;;
15820;SDS011;8011;51.650;7.240;2022-12-24T16:41:21;18.13;;;8.13;;
15820;SDS011;8011;51.650;7.240;2022-12-24T16:43:47;22.47;;;7.50;;
15820;SDS011;8011;51.650;7.240;2022-12-24T16:46:15;14.87;;;7.83;;
15820;SDS011;8011;51.650;7.240;2022-12-24T16:48:42;21.17;;;8.97;;
15820;SDS011;8011;51.650;7.240;2022-12-24T16:51:11;16.90;;;7.70;;
15820;SDS011;8011;51.650;7.240;2022-12-24T16:53:36;22.67;;;9.33;;
15820;SDS011;8011;51.650;7.240;2022-12-24T16:56:02;23.33;;;9.47;;
15820;SDS011;8011;51.650;7.240;2022-12-24T16:58:28;26.47;;;12.67;;
15820;SDS011;8011;51.650;7.240;2022-12-24T17:00:54;19.57;;;11.47;;
15820;SDS011;8011;51.650;7.240;2022-12-24T17:03:20;24.83;;;11.50;;
15820;SDS011;8011;51.650;7.240;2022-12-24T17:05:46;24.93;;;11.57;;
15820;SDS011;8011;51.650;7.240;2022-12-24T17:08:11;27.90;;;13.77;;
15820;SDS011;8011;51.650;7.240;2022-12-24T17:10:38;37.90;;;18.60;;
15820;SDS011;8011;51.650;7.240;2022-12-24T17:13:04;32.40;;;18.83;;
15820;SDS011;8011;51.650;7.240;2022-12-24T17:15:30;33.70;;;18.33;;
15820;SDS011;8011;51.650;7.240;2022-12-24T17:17:56;30.43;;;16.23;;
15820;SDS011;8011;51.650;7.240;2022-12-24T17:20:22;28.13;;;15.93;;
15820;SDS011;8011;51.650;7.240;2022-12-24T17:22:48;26.37;;;15.53;;
15820;SDS011;8011;51.650;7.240;2022-12-24T17:25:14;26.60;;;15.03;;
15820;SDS011;8011;51.650;7.240;2022-12-24T17:27:40;29.10;;;14.93;;
15820;SDS011;8011;51.650;7.240;2022-12-24T17:30:08;26.43;;;13.93;;
15820;SDS011;8011;51.650;7.240;2022-12-24T17:32:34;21.13;;;12.80;;
15820;SDS011;8011;51.650;7.240;2022-12-24T17:35:01;25.43;;;11.80;;
15820;SDS011;8011;51.650;7.240;2022-12-24T17:37:27;15.17;;;9.10;;
15820;SDS011;8011;51.650;7.240;2022-12-24T17:39:52;16.73;;;8.13;;
15820;SDS011;8011;51.650;7.240;2022-12-24T17:42:18;15.13;;;7.43;;
15820;SDS011;8011;51.650;7.240;2022-12-24T17:44:44;15.80;;;8.40;;
15820;SDS011;8011;51.650;7.240;2022-12-24T17:47:09;19.30;;;8.60;;
15820;SDS011;8011;51.650;7.240;2022-12-24T17:49:35;16.20;;;8.63;;
15820;SDS011;8011;51.650;7.240;2022-12-24T17:52:01;12.30;;;7.40;;
15820;SDS011;8011;51.650;7.240;2022-12-24T17:54:31;13.10;;;7.60;;
15820;SDS011;8011;51.650;7.240;2022-12-24T17:56:57;15.67;;;8.33;;
15820;SDS011;8011;51.650;7.240;2022-12-24T17:59:23;14.80;;;7.67;;
15820;SDS011;8011;51.650;7.240;2022-12-24T18:01:49;12.37;;;7.83;;
15820;SDS011;8011;51.650;7.240;2022-12-24T18:04:14;12.20;;;7.63;;
15820;SDS011;8011;51.650;7.240;2022-12-24T18:06:40;15.33;;;7.77;;
15820;SDS011;8011;51.650;7.240;2022-12-24T18:09:06;11.80;;;8.20;;
15820;SDS011;8011;51.650;7.240;2022-12-24T18:11:32;14.90;;;8.30;;
15820;SDS011;8011;51.650;7.240;2022-12-24T18:14:00;15.73;;;8.67;;
15820;SDS011;8011;51.650;7.240;2022-12-24T18:16:28;16.60;;;8.67;;
15820;SDS011;8011;51.650;7.240;2022-12-24T18:18:57;20.50;;;10.67;;
15820;SDS011;8011;51.650;7.240;2022-12-24T18:21:24;18.73;;;12.27;;
15820;SDS011;8011;51.650;7.240;2022-12-24T18:23:51;22.87;;;12.80;;
15820;SDS011;8011;51.650;7.240;2022-12-24T18:26:20;21.50;;;11.33;;
15820;SDS011;8011;51.650;7.240;2022-12-24T18:28:47;23.43;;;14.40;;
15820;SDS011;8011;51.650;7.240;2022-12-24T18:31:14;22.83;;;12.20;;
15820;SDS011;8011;51.650;7.240;2022-12-24T18:33:42;19.23;;;12.17;;
15820;SDS011;8011;51.650;7.240;2022-12-24T18:36:09;23.80;;;11.63;;
15820;SDS011;8011;51.650;7.240;2022-12-24T18:38:36;22.10;;;12.47;;
15820;SDS011;8011;51.650;7.240;2022-12-24T18:41:05;20.50;;;10.97;;
15820;SDS011;8011;51.650;7.240;2022-12-24T18:43:36;18.13;;;11.37;;
15820;SDS011;8011;51.650;7.240;2022-12-24T18:46:06;19.70;;;9.67;;
15820;SDS011;8011;51.650;7.240;2022-12-24T18:48:39;19.63;;;8.77;;
15820;SDS011;8011;51.650;7.240;2022-12-24T18:51:06;17.70;;;9.00;;
15820;SDS011;8011;51.650;7.240;2022-12-24T18:53:33;19.43;;;9.30;;
15820;SDS011;8011;51.650;7.240;2022-12-24T18:56:23;16.43;;;8.87;;
15820;SDS011;8011;51.650;7.240;2022-12-24T18:58:51;16.23;;;9.00;;
15820;SDS011;8011;51.650;7.240;2022-12-24T19:01:22;19.20;;;9.80;;
15820;SDS011;8011;51.650;7.240;2022-12-24T19:03:50;12.20;;;8.53;;
15820;SDS011;8011;51.650;7.240;2022-12-24T19:06:16;23.40;;;8.87;;
15820;SDS011;8011;51.650;7.240;2022-12-24T19:08:45;17.03;;;9.97;;
15820;SDS011;8011;51.650;7.240;2022-12-24T19:11:11;20.03;;;9.60;;
15820;SDS011;8011;51.650;7.240;2022-12-24T19:13:37;20.57;;;10.53;;
15820;SDS011;8011;51.650;7.240;2022-12-24T19:16:03;19.83;;;10.83;;
15820;SDS011;8011;51.650;7.240;2022-12-24T19:18:30;21.77;;;9.77;;
15820;SDS011;8011;51.650;7.240;2022-12-24T19:20:56;18.70;;;9.33;;
15820;SDS011;8011;51.650;7.240;2022-12-24T19:23:28;15.40;;;10.03;;
15820;SDS011;8011;51.650;7.240;2022-12-24T19:25:54;18.67;;;10.13;;
15820;SDS011;8011;51.650;7.240;2022-12-24T19:28:19;22.83;;;10.80;;
15820;SDS011;8011;51.650;7.240;2022-12-24T19:30:45;19.00;;;11.63;;
15820;SDS011;8011;51.650;7.240;2022-12-24T19:33:11;25.40;;;14.17;;
15820;SDS011;8011;51.650;7.240;2022-12-24T19:35:36;23.57;;;12.70;;
15820;SDS011;8011;51.650;7.240;2022-12-24T19:38:02;29.60;;;15.23;;
15820;SDS011;8011;51.650;7.240;2022-12-24T19:40:28;35.30;;;18.57;;
15820;SDS011;8011;51.650;7.240;2022-12-24T19:42:54;28.10;;;14.63;;
15820;SDS011;8011;51.650;7.240;2022-12-24T19:45:20;27.33;;;14.53;;
15820;SDS011;8011;51.650;7.240;2022-12-24T19:47:47;19.40;;;12.77;;
15820;SDS011;8011;51.650;7.240;2022-12-24T19:50:20;19.80;;;11.03;;
15820;SDS011;8011;51.650;7.240;2022-12-24T19:52:49;17.80;;;10.90;;
15820;SDS011;8011;51.650;7.240;2022-12-24T19:55:17;22.23;;;10.37;;
15820;SDS011;8011;51.650;7.240;2022-12-24T19:57:45;18.40;;;10.80;;
15820;SDS011;8011;51.650;7.240;2022-12-24T20:00:15;16.97;;;9.33;;
15820;SDS011;8011;51.650;7.240;2022-12-24T20:02:41;27.57;;;11.33;;